sensor_id;sensor_type;location;lat;lon;timestamp;P1;durP1;ratioP1;P2;durP2;ratioP2
74415;SDS011;62850;42.428;25.618;2022-12-29T00:01:53;23.08;;;11.88;;
74415;SDS011;62850;42.428;25.618;2022-12-29T00:04:20;26.25;;;11.75;;
74415;SDS011;62850;42.428;25.618;2022-12-29T00:06:46;25.40;;;11.55;;
74415;SDS011;62850;42.428;25.618;2022-12-29T00:09:12;27.05;;;11.85;;
74415;SDS011;62850;42.428;25.618;2022-12-29T00:11:38;23.92;;;12.00;;
74415;SDS011;62850;42.428;25.618;2022-12-29T00:14:04;23.25;;;12.18;;
74415;SDS011;62850;42.428;25.618;2022-12-29T00:16:48;20.85;;;11.13;;
74415;SDS011;62850;42.428;25.618;2022-12-29T00:19:14;23.65;;;11.38;;
74415;SDS011;62850;42.428;25.618;2022-12-29T00:21:58;21.70;;;11.43;;
74415;SDS011;62850;42.428;25.618;2022-12-29T00:24:44;23.80;;;10.55;;
74415;SDS011;62850;42.428;25.618;2022-12-29T00:27:18;22.42;;;10.23;;
74415;SDS011;62850;42.428;25.618;2022-12-29T00:30:07;26.50;;;11.35;;
74415;SDS011;62850;42.428;25.618;2022-12-29T00:32:53;19.55;;;9.77;;
74415;SDS011;62850;42.428;25.618;2022-12-29T00:35:38;18.92;;;10.43;;
74415;SDS011;62850;42.428;25.618;2022-12-29T00:38:08;20.77;;;9.88;;
74415;SDS011;62850;42.428;25.618;2022-12-29T00:40:54;19.45;;;9.27;;
74415;SDS011;62850;42.428;25.618;2022-12-29T00:43:38;18.92;;;9.43;;
74415;SDS011;62850;42.428;25.618;2022-12-29T00:46:22;16.58;;;8.88;;
74415;SDS011;62850;42.428;25.618;2022-12-29T00:48:47;18.10;;;9.32;;
74415;SDS011;62850;42.428;25.618;2022-12-29T00:51:31;19.60;;;9.13;;
74415;SDS011;62850;42.428;25.618;2022-12-29T00:53:57;15.93;;;8.50;;
74415;SDS011;62850;42.428;25.618;2022-12-29T00:56:23;21.85;;;9.30;;
74415;SDS011;62850;42.428;25.618;2022-12-29T00:58:48;17.13;;;9.25;;
74415;SDS011;62850;42.428;25.618;2022-12-29T01:01:14;16.95;;;8.60;;
74415;SDS011;62850;42.428;25.618;2022-12-29T01:03:39;20.48;;;8.98;;
74415;SDS011;62850;42.428;25.618;2022-12-29T01:06:08;15.85;;;8.68;;
74415;SDS011;62850;42.428;25.618;2022-12-29T01:08:35;16.27;;;8.52;;
74415;SDS011;62850;42.428;25.618;2022-12-29T01:11:02;19.92;;;9.10;;
74415;SDS011;62850;42.428;25.618;2022-12-29T01:13:35;20.67;;;7.97;;
74415;SDS011;62850;42.428;25.618;2022-12-29T01:16:06;15.35;;;7.95;;
74415;SDS011;62850;42.428;25.618;2022-12-29T01:18:32;18.17;;;8.35;;
74415;SDS011;62850;42.428;25.618;2022-12-29T01:21:02;17.63;;;7.22;;
74415;SDS011;62850;42.428;25.618;2022-12-29T01:23:29;16.92;;;7.45;;
74415;SDS011;62850;42.428;25.618;2022-12-29T01:25:55;17.48;;;8.27;;
74415;SDS011;62850;42.428;25.618;2022-12-29T01:28:21;18.70;;;8.85;;
74415;SDS011;62850;42.428;25.618;2022-12-29T01:30:47;16.88;;;8.02;;
74415;SDS011;62850;42.428;25.618;2022-12-29T01:33:13;17.45;;;8.82;;
74415;SDS011;62850;42.428;25.618;2022-12-29T01:35:38;18.55;;;8.68;;
74415;SDS011;62850;42.428;25.618;2022-12-29T01:38:04;18.25;;;8.48;;
74415;SDS011;62850;42.428;25.618;2022-12-29T01:40:30;19.35;;;9.32;;
74415;SDS011;62850;42.428;25.618;2022-12-29T01:42:55;20.10;;;8.07;;
74415;SDS011;62850;42.428;25.618;2022-12-29T01:45:21;17.02;;;8.68;;
74415;SDS011;62850;42.428;25.618;2022-12-29T01:48:04;17.42;;;7.43;;
74415;SDS011;62850;42.428;25.618;2022-12-29T01:50:35;14.35;;;6.55;;
74415;SDS011;62850;42.428;25.618;2022-12-29T01:55:34;14.88;;;6.32;;
74415;SDS011;62850;42.428;25.618;2022-12-29T01:58:05;15.77;;;7.45;;
74415;SDS011;62850;42.428;25.618;2022-12-29T02:00:32;13.38;;;6.25;;
74415;SDS011;62850;42.428;25.618;2022-12-29T02:02:57;13.43;;;5.95;;
74415;SDS011;62850;42.428;25.618;2022-12-29T02:08:15;14.07;;;5.70;;
74415;SDS011;62850;42.428;25.618;2022-12-29T02:10:42;12.25;;;5.82;;
74415;SDS011;62850;42.428;25.618;2022-12-29T02:13:09;12.45;;;4.93;;
74415;SDS011;62850;42.428;25.618;2022-12-29T02:21:54;12.82;;;5.22;;
74415;SDS011;62850;42.428;25.618;2022-12-29T02:24:36;19.70;;;6.05;;
74415;SDS011;62850;42.428;25.618;2022-12-29T02:27:17;13.43;;;5.65;;
74415;SDS011;62850;42.428;25.618;2022-12-29T02:32:54;12.43;;;5.50;;
74415;SDS011;62850;42.428;25.618;2022-12-29T02:35:36;15.23;;;5.55;;
74415;SDS011;62850;42.428;25.618;2022-12-29T02:38:20;11.40;;;4.68;;
74415;SDS011;62850;42.428;25.618;2022-12-29T02:41:07;13.55;;;5.45;;
74415;SDS011;62850;42.428;25.618;2022-12-29T02:43:52;11.05;;;4.78;;
74415;SDS011;62850;42.428;25.618;2022-12-29T02:49:09;10.07;;;4.50;;
74415;SDS011;62850;42.428;25.618;2022-12-29T02:54:22;14.35;;;5.65;;
74415;SDS011;62850;42.428;25.618;2022-12-29T02:57:39;14.70;;;5.43;;
74415;SDS011;62850;42.428;25.618;2022-12-29T03:00:09;12.23;;;5.43;;
74415;SDS011;62850;42.428;25.618;2022-12-29T03:02:54;14.50;;;6.05;;
74415;SDS011;62850;42.428;25.618;2022-12-29T03:08:44;16.38;;;5.63;;
74415;SDS011;62850;42.428;25.618;2022-12-29T03:11:20;10.77;;;5.50;;
74415;SDS011;62850;42.428;25.618;2022-12-29T03:16:57;13.25;;;5.18;;
74415;SDS011;62850;42.428;25.618;2022-12-29T03:19:38;10.93;;;5.30;;
74415;SDS011;62850;42.428;25.618;2022-12-29T03:22:17;14.13;;;5.57;;
74415;SDS011;62850;42.428;25.618;2022-12-29T03:24:53;14.15;;;5.57;;
74415;SDS011;62850;42.428;25.618;2022-12-29T03:27:23;15.27;;;5.72;;
74415;SDS011;62850;42.428;25.618;2022-12-29T03:29:54;11.85;;;5.10;;
74415;SDS011;62850;42.428;25.618;2022-12-29T03:32:27;12.40;;;5.60;;
74415;SDS011;62850;42.428;25.618;2022-12-29T03:34:59;14.00;;;5.75;;
74415;SDS011;62850;42.428;25.618;2022-12-29T03:37:27;14.40;;;6.10;;
74415;SDS011;62850;42.428;25.618;2022-12-29T03:39:59;12.65;;;4.88;;
74415;SDS011;62850;42.428;25.618;2022-12-29T03:42:25;14.82;;;5.35;;
74415;SDS011;62850;42.428;25.618;2022-12-29T03:44:55;11.57;;;4.47;;
74415;SDS011;62850;42.428;25.618;2022-12-29T03:47:22;11.07;;;4.70;;
74415;SDS011;62850;42.428;25.618;2022-12-29T03:49:48;11.52;;;4.78;;
74415;SDS011;62850;42.428;25.618;2022-12-29T03:52:14;11.45;;;5.43;;
74415;SDS011;62850;42.428;25.618;2022-12-29T03:54:40;10.40;;;5.22;;
74415;SDS011;62850;42.428;25.618;2022-12-29T03:57:05;10.73;;;4.85;;
74415;SDS011;62850;42.428;25.618;2022-12-29T03:59:31;14.77;;;5.38;;
74415;SDS011;62850;42.428;25.618;2022-12-29T04:01:56;12.60;;;5.32;;
74415;SDS011;62850;42.428;25.618;2022-12-29T04:04:22;14.02;;;5.28;;
74415;SDS011;62850;42.428;25.618;2022-12-29T04:06:47;16.00;;;6.45;;
74415;SDS011;62850;42.428;25.618;2022-12-29T04:09:13;12.18;;;4.78;;
74415;SDS011;62850;42.428;25.618;2022-12-29T04:11:38;15.07;;;5.82;;
74415;SDS011;62850;42.428;25.618;2022-12-29T04:14:04;15.23;;;5.65;;
74415;SDS011;62850;42.428;25.618;2022-12-29T04:16:30;10.55;;;5.45;;
74415;SDS011;62850;42.428;25.618;2022-12-29T04:18:55;16.10;;;6.57;;
74415;SDS011;62850;42.428;25.618;2022-12-29T04:21:21;18.25;;;7.93;;
74415;SDS011;62850;42.428;25.618;2022-12-29T04:23:46;15.00;;;7.85;;
74415;SDS011;62850;42.428;25.618;2022-12-29T04:26:12;17.90;;;7.95;;
74415;SDS011;62850;42.428;25.618;2022-12-29T04:28:38;14.02;;;7.28;;
74415;SDS011;62850;42.428;25.618;2022-12-29T04:31:04;15.48;;;6.80;;
74415;SDS011;62850;42.428;25.618;2022-12-29T04:33:30;19.63;;;7.70;;
74415;SDS011;62850;42.428;25.618;2022-12-29T04:35:55;17.85;;;8.38;;
74415;SDS011;62850;42.428;25.618;2022-12-29T04:38:22;21.35;;;8.98;;
74415;SDS011;62850;42.428;25.618;2022-12-29T04:40:49;16.63;;;8.45;;
74415;SDS011;62850;42.428;25.618;2022-12-29T04:43:15;20.40;;;8.52;;
74415;SDS011;62850;42.428;25.618;2022-12-29T04:45:47;19.00;;;9.77;;
74415;SDS011;62850;42.428;25.618;2022-12-29T04:48:13;20.73;;;9.43;;
74415;SDS011;62850;42.428;25.618;2022-12-29T04:50:40;20.50;;;8.40;;
74415;SDS011;62850;42.428;25.618;2022-12-29T04:53:06;16.55;;;8.73;;
74415;SDS011;62850;42.428;25.618;2022-12-29T04:55:32;20.02;;;9.18;;
74415;SDS011;62850;42.428;25.618;2022-12-29T04:57:58;17.27;;;8.00;;
74415;SDS011;62850;42.428;25.618;2022-12-29T05:00:23;18.42;;;8.23;;
74415;SDS011;62850;42.428;25.618;2022-12-29T05:02:49;17.35;;;7.85;;
74415;SDS011;62850;42.428;25.618;2022-12-29T05:05:15;19.48;;;9.25;;
74415;SDS011;62850;42.428;25.618;2022-12-29T05:07:40;18.80;;;9.45;;
74415;SDS011;62850;42.428;25.618;2022-12-29T05:10:06;17.58;;;9.52;;
74415;SDS011;62850;42.428;25.618;2022-12-29T05:12:33;27.23;;;9.93;;
74415;SDS011;62850;42.428;25.618;2022-12-29T05:15:00;20.55;;;9.75;;
74415;SDS011;62850;42.428;25.618;2022-12-29T05:17:28;20.30;;;10.25;;
74415;SDS011;62850;42.428;25.618;2022-12-29T05:19:53;21.58;;;10.52;;
74415;SDS011;62850;42.428;25.618;2022-12-29T05:22:19;20.98;;;9.88;;
74415;SDS011;62850;42.428;25.618;2022-12-29T05:24:45;18.90;;;10.40;;
74415;SDS011;62850;42.428;25.618;2022-12-29T05:27:10;24.92;;;11.48;;
74415;SDS011;62850;42.428;25.618;2022-12-29T05:29:36;25.35;;;10.85;;
74415;SDS011;62850;42.428;25.618;2022-12-29T05:32:01;21.77;;;10.02;;
74415;SDS011;62850;42.428;25.618;2022-12-29T05:34:27;21.98;;;9.98;;
74415;SDS011;62850;42.428;25.618;2022-12-29T05:36:52;20.42;;;9.23;;
74415;SDS011;62850;42.428;25.618;2022-12-29T05:39:18;19.40;;;9.25;;
74415;SDS011;62850;42.428;25.618;2022-12-29T05:41:43;24.92;;;10.27;;
74415;SDS011;62850;42.428;25.618;2022-12-29T05:44:10;27.02;;;11.52;;
74415;SDS011;62850;42.428;25.618;2022-12-29T05:46:35;26.92;;;12.55;;
74415;SDS011;62850;42.428;25.618;2022-12-29T05:49:01;29.45;;;14.27;;
74415;SDS011;62850;42.428;25.618;2022-12-29T05:51:27;41.70;;;17.02;;
74415;SDS011;62850;42.428;25.618;2022-12-29T05:53:53;37.65;;;17.15;;
74415;SDS011;62850;42.428;25.618;2022-12-29T05:56:18;32.85;;;15.50;;
74415;SDS011;62850;42.428;25.618;2022-12-29T05:58:44;28.10;;;13.25;;
74415;SDS011;62850;42.428;25.618;2022-12-29T06:01:09;27.90;;;13.60;;
74415;SDS011;62850;42.428;25.618;2022-12-29T06:03:35;26.20;;;11.15;;
74415;SDS011;62850;42.428;25.618;2022-12-29T06:06:00;28.80;;;11.90;;
74415;SDS011;62850;42.428;25.618;2022-12-29T06:08:26;25.48;;;13.07;;
74415;SDS011;62850;42.428;25.618;2022-12-29T06:10:52;24.55;;;13.48;;
74415;SDS011;62850;42.428;25.618;2022-12-29T06:13:17;23.05;;;10.80;;
74415;SDS011;62850;42.428;25.618;2022-12-29T06:15:43;22.60;;;10.90;;
74415;SDS011;62850;42.428;25.618;2022-12-29T06:18:08;23.92;;;10.43;;
74415;SDS011;62850;42.428;25.618;2022-12-29T06:20:34;19.88;;;8.25;;
74415;SDS011;62850;42.428;25.618;2022-12-29T06:23:00;19.33;;;9.00;;
74415;SDS011;62850;42.428;25.618;2022-12-29T06:25:31;20.45;;;8.98;;
74415;SDS011;62850;42.428;25.618;2022-12-29T06:27:58;23.02;;;9.60;;
74415;SDS011;62850;42.428;25.618;2022-12-29T06:30:24;18.10;;;7.93;;
74415;SDS011;62850;42.428;25.618;2022-12-29T06:32:49;16.92;;;8.77;;
74415;SDS011;62850;42.428;25.618;2022-12-29T06:35:16;17.63;;;8.15;;
74415;SDS011;62850;42.428;25.618;2022-12-29T06:37:42;20.00;;;9.43;;
74415;SDS011;62850;42.428;25.618;2022-12-29T06:40:08;23.27;;;9.63;;
74415;SDS011;62850;42.428;25.618;2022-12-29T06:42:34;24.67;;;10.27;;
74415;SDS011;62850;42.428;25.618;2022-12-29T06:45:00;27.23;;;10.77;;
74415;SDS011;62850;42.428;25.618;2022-12-29T06:47:26;27.65;;;10.73;;
74415;SDS011;62850;42.428;25.618;2022-12-29T06:49:52;24.15;;;10.45;;
74415;SDS011;62850;42.428;25.618;2022-12-29T06:52:17;26.02;;;11.32;;
74415;SDS011;62850;42.428;25.618;2022-12-29T06:54:43;23.67;;;11.48;;
74415;SDS011;62850;42.428;25.618;2022-12-29T06:57:08;23.55;;;10.82;;
74415;SDS011;62850;42.428;25.618;2022-12-29T06:59:34;26.90;;;9.82;;
74415;SDS011;62850;42.428;25.618;2022-12-29T07:01:59;24.02;;;9.60;;
74415;SDS011;62850;42.428;25.618;2022-12-29T07:04:27;23.02;;;10.27;;
74415;SDS011;62850;42.428;25.618;2022-12-29T07:06:53;28.02;;;10.00;;
74415;SDS011;62850;42.428;25.618;2022-12-29T07:09:19;23.80;;;9.38;;
74415;SDS011;62850;42.428;25.618;2022-12-29T07:11:44;22.73;;;9.45;;
74415;SDS011;62850;42.428;25.618;2022-12-29T07:14:11;21.88;;;8.65;;
74415;SDS011;62850;42.428;25.618;2022-12-29T07:16:37;14.38;;;7.30;;
74415;SDS011;62850;42.428;25.618;2022-12-29T07:19:03;18.92;;;7.68;;
74415;SDS011;62850;42.428;25.618;2022-12-29T07:21:29;12.82;;;7.03;;
74415;SDS011;62850;42.428;25.618;2022-12-29T07:23:54;26.58;;;10.35;;
74415;SDS011;62850;42.428;25.618;2022-12-29T07:26:20;21.80;;;7.93;;
74415;SDS011;62850;42.428;25.618;2022-12-29T07:28:46;28.30;;;8.27;;
74415;SDS011;62850;42.428;25.618;2022-12-29T07:31:15;23.15;;;8.70;;
74415;SDS011;62850;42.428;25.618;2022-12-29T07:36:09;34.67;;;8.00;;
74415;SDS011;62850;42.428;25.618;2022-12-29T07:38:38;20.23;;;8.40;;
74415;SDS011;62850;42.428;25.618;2022-12-29T07:41:04;17.05;;;7.22;;
74415;SDS011;62850;42.428;25.618;2022-12-29T07:43:30;20.80;;;8.23;;
74415;SDS011;62850;42.428;25.618;2022-12-29T07:45:56;23.98;;;8.98;;
74415;SDS011;62850;42.428;25.618;2022-12-29T07:48:21;20.55;;;7.75;;
74415;SDS011;62850;42.428;25.618;2022-12-29T07:50:47;24.38;;;9.57;;
74415;SDS011;62850;42.428;25.618;2022-12-29T07:53:13;31.08;;;10.73;;
74415;SDS011;62850;42.428;25.618;2022-12-29T07:55:39;21.02;;;9.18;;
74415;SDS011;62850;42.428;25.618;2022-12-29T07:58:05;20.73;;;8.27;;
74415;SDS011;62850;42.428;25.618;2022-12-29T08:00:30;21.30;;;9.05;;
74415;SDS011;62850;42.428;25.618;2022-12-29T08:02:56;20.25;;;8.35;;
74415;SDS011;62850;42.428;25.618;2022-12-29T08:05:22;22.25;;;9.43;;
74415;SDS011;62850;42.428;25.618;2022-12-29T08:07:47;19.58;;;9.27;;
74415;SDS011;62850;42.428;25.618;2022-12-29T08:10:13;21.40;;;10.15;;
74415;SDS011;62850;42.428;25.618;2022-12-29T08:12:40;21.05;;;9.85;;
74415;SDS011;62850;42.428;25.618;2022-12-29T08:15:06;22.02;;;10.65;;
74415;SDS011;62850;42.428;25.618;2022-12-29T08:17:33;22.92;;;10.20;;
74415;SDS011;62850;42.428;25.618;2022-12-29T08:19:59;21.35;;;10.32;;
74415;SDS011;62850;42.428;25.618;2022-12-29T08:22:24;22.17;;;9.98;;
74415;SDS011;62850;42.428;25.618;2022-12-29T08:24:50;26.67;;;10.50;;
74415;SDS011;62850;42.428;25.618;2022-12-29T08:27:16;21.58;;;9.98;;
74415;SDS011;62850;42.428;25.618;2022-12-29T08:29:42;28.25;;;11.13;;
74415;SDS011;62850;42.428;25.618;2022-12-29T08:32:07;25.45;;;11.10;;
74415;SDS011;62850;42.428;25.618;2022-12-29T08:34:33;25.45;;;10.10;;
74415;SDS011;62850;42.428;25.618;2022-12-29T08:36:59;25.08;;;10.45;;
74415;SDS011;62850;42.428;25.618;2022-12-29T08:39:24;28.42;;;10.65;;
74415;SDS011;62850;42.428;25.618;2022-12-29T08:41:50;33.78;;;10.70;;
74415;SDS011;62850;42.428;25.618;2022-12-29T08:44:15;26.38;;;10.20;;
74415;SDS011;62850;42.428;25.618;2022-12-29T08:46:41;23.30;;;10.30;;
74415;SDS011;62850;42.428;25.618;2022-12-29T08:49:06;23.40;;;10.65;;
74415;SDS011;62850;42.428;25.618;2022-12-29T08:51:32;22.90;;;10.45;;
74415;SDS011;62850;42.428;25.618;2022-12-29T08:53:58;23.50;;;10.45;;
74415;SDS011;62850;42.428;25.618;2022-12-29T08:56:24;21.95;;;10.48;;
74415;SDS011;62850;42.428;25.618;2022-12-29T08:58:50;23.67;;;10.30;;
74415;SDS011;62850;42.428;25.618;2022-12-29T09:01:16;21.73;;;10.07;;
74415;SDS011;62850;42.428;25.618;2022-12-29T09:03:42;19.73;;;9.57;;
74415;SDS011;62850;42.428;25.618;2022-12-29T09:06:07;17.80;;;9.38;;
74415;SDS011;62850;42.428;25.618;2022-12-29T09:08:33;25.85;;;10.40;;
74415;SDS011;62850;42.428;25.618;2022-12-29T09:11:32;26.92;;;9.73;;
74415;SDS011;62850;42.428;25.618;2022-12-29T09:13:52;20.00;;;9.60;;
74415;SDS011;62850;42.428;25.618;2022-12-29T09:16:18;19.92;;;9.57;;
74415;SDS011;62850;42.428;25.618;2022-12-29T09:18:46;21.25;;;10.32;;
74415;SDS011;62850;42.428;25.618;2022-12-29T09:21:12;17.92;;;8.95;;
74415;SDS011;62850;42.428;25.618;2022-12-29T09:23:38;16.73;;;8.98;;
74415;SDS011;62850;42.428;25.618;2022-12-29T09:26:05;19.13;;;9.02;;
74415;SDS011;62850;42.428;25.618;2022-12-29T09:28:31;19.75;;;8.88;;
74415;SDS011;62850;42.428;25.618;2022-12-29T09:30:57;18.65;;;8.15;;
74415;SDS011;62850;42.428;25.618;2022-12-29T09:33:23;14.57;;;7.22;;
74415;SDS011;62850;42.428;25.618;2022-12-29T09:35:58;15.88;;;7.38;;
74415;SDS011;62850;42.428;25.618;2022-12-29T09:38:24;15.38;;;7.40;;
74415;SDS011;62850;42.428;25.618;2022-12-29T09:40:51;16.02;;;7.18;;
74415;SDS011;62850;42.428;25.618;2022-12-29T09:43:27;13.95;;;7.10;;
74415;SDS011;62850;42.428;25.618;2022-12-29T09:48:49;15.05;;;6.93;;
74415;SDS011;62850;42.428;25.618;2022-12-29T09:51:21;14.25;;;6.85;;
74415;SDS011;62850;42.428;25.618;2022-12-29T09:53:51;13.95;;;6.88;;
74415;SDS011;62850;42.428;25.618;2022-12-29T09:56:22;13.43;;;7.13;;
74415;SDS011;62850;42.428;25.618;2022-12-29T09:59:04;15.27;;;6.43;;
74415;SDS011;62850;42.428;25.618;2022-12-29T10:01:58;11.35;;;6.25;;
74415;SDS011;62850;42.428;25.618;2022-12-29T10:04:31;10.90;;;6.28;;
74415;SDS011;62850;42.428;25.618;2022-12-29T10:07:00;11.63;;;6.35;;
74415;SDS011;62850;42.428;25.618;2022-12-29T10:09:41;14.77;;;6.90;;
74415;SDS011;62850;42.428;25.618;2022-12-29T10:18:29;12.23;;;6.22;;
74415;SDS011;62850;42.428;25.618;2022-12-29T10:21:10;11.07;;;6.57;;
74415;SDS011;62850;42.428;25.618;2022-12-29T10:23:53;14.30;;;7.25;;
74415;SDS011;62850;42.428;25.618;2022-12-29T10:26:23;15.00;;;7.63;;
74415;SDS011;62850;42.428;25.618;2022-12-29T10:28:57;14.43;;;7.40;;
74415;SDS011;62850;42.428;25.618;2022-12-29T10:34:01;15.20;;;7.40;;
74415;SDS011;62850;42.428;25.618;2022-12-29T10:36:34;11.70;;;6.78;;
74415;SDS011;62850;42.428;25.618;2022-12-29T10:44:36;17.75;;;7.47;;
74415;SDS011;62850;42.428;25.618;2022-12-29T10:47:03;13.73;;;6.60;;
74415;SDS011;62850;42.428;25.618;2022-12-29T10:49:31;11.95;;;7.03;;
74415;SDS011;62850;42.428;25.618;2022-12-29T10:52:02;12.55;;;6.65;;
74415;SDS011;62850;42.428;25.618;2022-12-29T10:54:30;15.13;;;7.28;;
74415;SDS011;62850;42.428;25.618;2022-12-29T10:57:07;16.02;;;7.07;;
74415;SDS011;62850;42.428;25.618;2022-12-29T10:59:36;13.60;;;8.15;;
74415;SDS011;62850;42.428;25.618;2022-12-29T11:04:46;16.33;;;7.20;;
74415;SDS011;62850;42.428;25.618;2022-12-29T11:07:28;13.20;;;7.50;;
74415;SDS011;62850;42.428;25.618;2022-12-29T11:09:55;15.13;;;7.38;;
74415;SDS011;62850;42.428;25.618;2022-12-29T11:12:46;13.18;;;7.70;;
74415;SDS011;62850;42.428;25.618;2022-12-29T11:15:25;15.27;;;7.18;;
74415;SDS011;62850;42.428;25.618;2022-12-29T11:17:52;16.95;;;7.63;;
74415;SDS011;62850;42.428;25.618;2022-12-29T11:22:58;14.20;;;6.95;;
74415;SDS011;62850;42.428;25.618;2022-12-29T11:25:24;14.77;;;7.38;;
74415;SDS011;62850;42.428;25.618;2022-12-29T11:28:03;12.90;;;7.20;;
74415;SDS011;62850;42.428;25.618;2022-12-29T11:30:41;17.38;;;8.10;;
74415;SDS011;62850;42.428;25.618;2022-12-29T11:33:07;14.75;;;8.07;;
74415;SDS011;62850;42.428;25.618;2022-12-29T11:35:43;12.88;;;7.47;;
74415;SDS011;62850;42.428;25.618;2022-12-29T11:38:32;13.00;;;7.47;;
74415;SDS011;62850;42.428;25.618;2022-12-29T11:41:05;12.02;;;7.22;;
74415;SDS011;62850;42.428;25.618;2022-12-29T11:43:36;13.93;;;7.70;;
74415;SDS011;62850;42.428;25.618;2022-12-29T11:46:04;15.25;;;7.38;;
74415;SDS011;62850;42.428;25.618;2022-12-29T11:48:38;16.33;;;8.38;;
74415;SDS011;62850;42.428;25.618;2022-12-29T11:51:05;18.23;;;9.00;;
74415;SDS011;62850;42.428;25.618;2022-12-29T11:56:32;14.30;;;7.38;;
74415;SDS011;62850;42.428;25.618;2022-12-29T11:59:24;16.35;;;7.57;;
74415;SDS011;62850;42.428;25.618;2022-12-29T12:01:52;13.25;;;7.38;;
74415;SDS011;62850;42.428;25.618;2022-12-29T12:04:19;12.40;;;7.35;;
74415;SDS011;62850;42.428;25.618;2022-12-29T12:06:59;17.65;;;8.27;;
74415;SDS011;62850;42.428;25.618;2022-12-29T12:09:27;16.17;;;7.72;;
74415;SDS011;62850;42.428;25.618;2022-12-29T12:11:56;16.35;;;7.45;;
74415;SDS011;62850;42.428;25.618;2022-12-29T12:14:28;14.77;;;7.43;;
74415;SDS011;62850;42.428;25.618;2022-12-29T12:17:02;12.02;;;7.25;;
74415;SDS011;62850;42.428;25.618;2022-12-29T12:19:40;15.25;;;7.75;;
74415;SDS011;62850;42.428;25.618;2022-12-29T12:25:09;15.82;;;7.55;;
74415;SDS011;62850;42.428;25.618;2022-12-29T12:30:19;14.40;;;7.63;;
74415;SDS011;62850;42.428;25.618;2022-12-29T12:32:58;16.58;;;8.23;;
74415;SDS011;62850;42.428;25.618;2022-12-29T12:48:50;17.05;;;8.13;;
74415;SDS011;62850;42.428;25.618;2022-12-29T12:51:42;17.50;;;8.02;;
74415;SDS011;62850;42.428;25.618;2022-12-29T13:10:26;18.33;;;8.10;;
74415;SDS011;62850;42.428;25.618;2022-12-29T13:24:29;17.30;;;7.72;;
74415;SDS011;62850;42.428;25.618;2022-12-29T13:27:12;15.13;;;7.97;;
74415;SDS011;62850;42.428;25.618;2022-12-29T13:37:56;15.38;;;8.43;;
74415;SDS011;62850;42.428;25.618;2022-12-29T13:40:28;19.42;;;9.13;;
74415;SDS011;62850;42.428;25.618;2022-12-29T13:43:00;16.75;;;9.48;;
74415;SDS011;62850;42.428;25.618;2022-12-29T13:45:28;18.80;;;9.07;;
74415;SDS011;62850;42.428;25.618;2022-12-29T13:48:15;16.63;;;9.25;;
74415;SDS011;62850;42.428;25.618;2022-12-29T13:50:54;16.77;;;9.07;;
74415;SDS011;62850;42.428;25.618;2022-12-29T14:05:03;18.05;;;8.82;;
74415;SDS011;62850;42.428;25.618;2022-12-29T14:07:56;19.80;;;9.35;;
74415;SDS011;62850;42.428;25.618;2022-12-29T14:15:37;19.83;;;9.98;;
74415;SDS011;62850;42.428;25.618;2022-12-29T14:18:13;20.05;;;10.05;;
74415;SDS011;62850;42.428;25.618;2022-12-29T14:20:46;21.80;;;10.57;;
74415;SDS011;62850;42.428;25.618;2022-12-29T14:28:40;19.70;;;10.52;;
74415;SDS011;62850;42.428;25.618;2022-12-29T14:33:39;19.90;;;10.40;;
74415;SDS011;62850;42.428;25.618;2022-12-29T14:38:51;20.23;;;11.23;;
74415;SDS011;62850;42.428;25.618;2022-12-29T14:41:18;17.92;;;10.25;;
74415;SDS011;62850;42.428;25.618;2022-12-29T14:46:22;17.92;;;10.00;;
74415;SDS011;62850;42.428;25.618;2022-12-29T14:48:48;21.52;;;10.88;;
74415;SDS011;62850;42.428;25.618;2022-12-29T14:51:28;18.92;;;10.25;;
74415;SDS011;62850;42.428;25.618;2022-12-29T14:53:59;21.10;;;10.45;;
74415;SDS011;62850;42.428;25.618;2022-12-29T14:56:27;25.15;;;11.68;;
74415;SDS011;62850;42.428;25.618;2022-12-29T14:59:00;20.10;;;10.70;;
74415;SDS011;62850;42.428;25.618;2022-12-29T15:04:00;25.75;;;12.98;;
74415;SDS011;62850;42.428;25.618;2022-12-29T15:06:31;25.65;;;13.68;;
74415;SDS011;62850;42.428;25.618;2022-12-29T15:09:12;31.25;;;15.52;;
74415;SDS011;62850;42.428;25.618;2022-12-29T15:12:06;29.33;;;15.50;;
74415;SDS011;62850;42.428;25.618;2022-12-29T15:14:56;36.92;;;16.65;;
74415;SDS011;62850;42.428;25.618;2022-12-29T15:17:28;30.33;;;15.80;;
74415;SDS011;62850;42.428;25.618;2022-12-29T15:19:54;34.97;;;17.10;;
74415;SDS011;62850;42.428;25.618;2022-12-29T15:22:22;40.53;;;18.13;;
74415;SDS011;62850;42.428;25.618;2022-12-29T15:24:49;33.05;;;17.52;;
74415;SDS011;62850;42.428;25.618;2022-12-29T15:27:23;34.58;;;19.17;;
74415;SDS011;62850;42.428;25.618;2022-12-29T15:29:58;40.25;;;19.73;;
74415;SDS011;62850;42.428;25.618;2022-12-29T15:32:27;35.60;;;19.55;;
74415;SDS011;62850;42.428;25.618;2022-12-29T15:34:56;42.22;;;21.02;;
74415;SDS011;62850;42.428;25.618;2022-12-29T15:37:27;46.65;;;22.98;;
74415;SDS011;62850;42.428;25.618;2022-12-29T15:40:02;44.90;;;23.13;;
74415;SDS011;62850;42.428;25.618;2022-12-29T15:42:48;47.58;;;25.10;;
74415;SDS011;62850;42.428;25.618;2022-12-29T15:45:15;50.60;;;25.67;;
74415;SDS011;62850;42.428;25.618;2022-12-29T15:47:42;55.85;;;24.73;;
74415;SDS011;62850;42.428;25.618;2022-12-29T15:50:17;59.05;;;28.15;;
74415;SDS011;62850;42.428;25.618;2022-12-29T15:52:48;55.63;;;27.60;;
74415;SDS011;62850;42.428;25.618;2022-12-29T15:55:18;64.15;;;27.05;;
74415;SDS011;62850;42.428;25.618;2022-12-29T15:57:57;56.65;;;25.60;;
74415;SDS011;62850;42.428;25.618;2022-12-29T16:00:26;47.10;;;23.23;;
74415;SDS011;62850;42.428;25.618;2022-12-29T16:02:56;41.75;;;22.20;;
74415;SDS011;62850;42.428;25.618;2022-12-29T16:05:36;51.38;;;21.05;;
74415;SDS011;62850;42.428;25.618;2022-12-29T16:08:20;39.22;;;19.55;;
74415;SDS011;62850;42.428;25.618;2022-12-29T16:10:55;49.13;;;22.60;;
74415;SDS011;62850;42.428;25.618;2022-12-29T16:18:49;39.92;;;20.88;;
74415;SDS011;62850;42.428;25.618;2022-12-29T16:21:29;36.63;;;19.60;;
74415;SDS011;62850;42.428;25.618;2022-12-29T16:24:04;33.95;;;18.50;;
74415;SDS011;62850;42.428;25.618;2022-12-29T16:26:32;39.28;;;18.70;;
74415;SDS011;62850;42.428;25.618;2022-12-29T16:28:58;36.42;;;18.30;;
74415;SDS011;62850;42.428;25.618;2022-12-29T16:31:32;39.95;;;20.45;;
74415;SDS011;62850;42.428;25.618;2022-12-29T16:36:56;38.80;;;20.00;;
74415;SDS011;62850;42.428;25.618;2022-12-29T16:39:31;35.65;;;18.85;;
74415;SDS011;62850;42.428;25.618;2022-12-29T16:41:58;33.38;;;18.90;;
74415;SDS011;62850;42.428;25.618;2022-12-29T16:44:26;33.58;;;18.10;;
74415;SDS011;62850;42.428;25.618;2022-12-29T16:46:57;31.90;;;16.98;;
74415;SDS011;62850;42.428;25.618;2022-12-29T16:49:37;30.65;;;16.15;;
74415;SDS011;62850;42.428;25.618;2022-12-29T16:52:22;38.42;;;18.20;;
74415;SDS011;62850;42.428;25.618;2022-12-29T16:54:56;37.00;;;17.58;;
74415;SDS011;62850;42.428;25.618;2022-12-29T16:57:30;33.85;;;16.27;;
74415;SDS011;62850;42.428;25.618;2022-12-29T17:00:05;34.58;;;17.48;;
74415;SDS011;62850;42.428;25.618;2022-12-29T17:02:32;36.40;;;17.23;;
74415;SDS011;62850;42.428;25.618;2022-12-29T17:05:12;32.70;;;17.00;;